Time;durP1;ratioP1;P1;durP2;ratioP2;P2;SDS_P1;SDS_P2;PMS_P1;PMS_P2;Temp;Humidity;BMP_temperature;BMP_pressure;BME280_temperature;BME280_humidity;BME280_pressure;Samples;Min_cycle;Max_cycle;Signal;HPM_P1;HPM_P2
2020/12/20 00:02:11;;;;;;;13.95;12.23;;;9.60;99.90;;;;;;5104224;28;20228;-80
2020/12/20 00:04:38;;;;;;;15.00;12.15;;;9.70;99.90;;;;;;5115890;28;20210;-82
2020/12/20 00:07:07;;;;;;;17.13;12.90;;;9.70;99.90;;;;;;5118363;28;20202;-79
2020/12/20 00:09:34;;;;;;;13.85;12.07;;;9.70;99.90;;;;;;5118896;28;20215;-77
2020/12/20 00:12:01;;;;;;;12.63;11.27;;;9.70;99.90;;;;;;5117873;28;20194;-80
2020/12/20 00:14:28;;;;;;;12.77;11.20;;;9.80;99.90;;;;;;5116322;28;20250;-80
2020/12/20 00:16:59;;;;;;;13.48;12.18;;;9.80;99.90;;;;;;5116857;28;20519;-81
2020/12/20 00:19:27;;;;;;;15.63;11.38;;;9.90;99.90;;;;;;5116947;28;20186;-80
2020/12/20 00:21:56;;;;;;;19.58;14.60;;;10.00;99.90;;;;;;5117204;28;20202;-82
2020/12/20 00:24:23;;;;;;;14.57;13.00;;;9.90;99.90;;;;;;5117144;28;20178;-79
2020/12/20 00:26:50;;;;;;;15.70;12.38;;;9.90;99.90;;;;;;5117691;28;20213;-81
2020/12/20 00:29:17;;;;;;;13.68;11.90;;;9.90;99.90;;;;;;5118220;28;20207;-78
2020/12/20 00:31:43;;;;;;;12.00;10.57;;;9.80;99.90;;;;;;5100466;28;20219;-78
2020/12/20 00:34:10;;;;;;;13.68;11.13;;;9.90;99.90;;;;;;5096364;28;20214;-78
2020/12/20 00:36:38;;;;;;;11.65;10.15;;;9.90;99.90;;;;;;5097574;28;20226;-79
2020/12/20 00:39:05;;;;;;;13.45;11.32;;;10.00;99.90;;;;;;5098384;28;20183;-79
2020/12/20 00:41:32;;;;;;;12.18;10.98;;;9.90;99.90;;;;;;5095576;28;20222;-79
2020/12/20 00:43:58;;;;;;;13.45;11.38;;;9.90;99.90;;;;;;5090111;28;20199;-79
2020/12/20 00:46:25;;;;;;;11.20;10.10;;;9.90;99.90;;;;;;5093393;28;20268;-80
2020/12/20 00:48:52;;;;;;;13.30;10.65;;;9.90;99.90;;;;;;5088708;28;20203;-79
2020/12/20 00:51:18;;;;;;;15.45;10.85;;;9.90;99.90;;;;;;5088423;28;20241;-79
2020/12/20 00:53:46;;;;;;;11.80;10.57;;;10.00;99.90;;;;;;5089227;28;20203;-82
2020/12/20 00:56:14;;;;;;;13.57;11.27;;;9.90;99.90;;;;;;5088404;28;20206;-81
2020/12/20 00:58:41;;;;;;;12.10;9.68;;;9.90;99.90;;;;;;5088207;28;20228;-83
2020/12/20 01:01:08;;;;;;;12.25;11.05;;;9.80;99.90;;;;;;5099130;28;20218;-80
2020/12/20 01:03:35;;;;;;;16.23;11.05;;;9.70;99.90;;;;;;5114432;28;20206;-80
2020/12/20 01:06:02;;;;;;;14.73;12.02;;;9.60;99.90;;;;;;5111796;28;20224;-82
2020/12/20 01:08:28;;;;;;;12.38;11.02;;;9.50;99.90;;;;;;5110255;28;20229;-80
2020/12/20 01:10:56;;;;;;;15.30;11.65;;;9.50;99.90;;;;;;5112011;28;20230;-79
2020/12/20 01:13:22;;;;;;;13.98;12.20;;;9.50;99.90;;;;;;5110435;28;20205;-81
2020/12/20 01:15:49;;;;;;;13.82;12.35;;;9.50;99.90;;;;;;5108853;28;20231;-82
2020/12/20 01:18:16;;;;;;;12.52;11.35;;;9.40;99.90;;;;;;5108616;28;20262;-83
2020/12/20 01:20:43;;;;;;;13.30;11.90;;;9.40;99.90;;;;;;5110436;28;20218;-81
2020/12/20 01:23:10;;;;;;;12.52;11.32;;;9.40;99.90;;;;;;5108754;28;20213;-81
2020/12/20 01:25:37;;;;;;;17.08;11.27;;;9.30;99.90;;;;;;5097378;28;20220;-81
2020/12/20 01:28:04;;;;;;;12.60;11.25;;;9.20;99.90;;;;;;5088312;28;20210;-79
2020/12/20 01:30:31;;;;;;;13.32;12.02;;;9.20;99.90;;;;;;5103029;28;20225;-79
2020/12/20 01:32:57;;;;;;;11.32;10.13;;;9.10;99.90;;;;;;5108484;28;20198;-81
2020/12/20 01:35:24;;;;;;;11.63;10.02;;;9.10;99.90;;;;;;5110486;28;20224;-82
2020/12/20 01:37:51;;;;;;;11.68;10.48;;;9.20;99.90;;;;;;5112399;28;20251;-78
2020/12/20 01:40:17;;;;;;;13.50;12.10;;;9.20;99.90;;;;;;5113883;28;20225;-78
2020/12/20 01:42:44;;;;;;;11.75;9.13;;;9.30;99.90;;;;;;5113982;28;20198;-78
2020/12/20 01:45:11;;;;;;;12.85;11.27;;;9.30;99.90;;;;;;5113891;28;20221;-78
2020/12/20 01:47:38;;;;;;;14.77;12.15;;;9.30;99.90;;;;;;5113603;28;20658;-78
2020/12/20 01:50:05;;;;;;;25.95;17.25;;;9.30;99.90;;;;;;5114984;28;20218;-79
2020/12/20 01:52:32;;;;;;;13.35;11.82;;;9.40;99.90;;;;;;5114900;28;20280;-79
2020/12/20 01:55:00;;;;;;;13.57;11.25;;;9.30;99.90;;;;;;5112641;28;20209;-81
2020/12/20 01:57:27;;;;;;;13.93;12.40;;;9.30;99.90;;;;;;5109343;28;20217;-82
2020/12/20 01:59:54;;;;;;;13.88;11.70;;;9.20;99.90;;;;;;5109062;28;20213;-80
2020/12/20 02:02:21;;;;;;;13.07;11.30;;;9.20;99.90;;;;;;5086744;28;20198;-81
2020/12/20 02:04:48;;;;;;;10.93;9.73;;;9.20;99.90;;;;;;5083268;28;20268;-81
2020/12/20 02:07:16;;;;;;;12.60;11.30;;;9.30;99.90;;;;;;5088139;28;20659;-81
2020/12/20 02:09:44;;;;;;;11.98;10.73;;;9.30;99.90;;;;;;5088333;28;20194;-81
2020/12/20 02:12:11;;;;;;;11.05;9.25;;;9.30;99.90;;;;;;5088750;28;20229;-82
2020/12/20 02:14:38;;;;;;;11.65;10.32;;;9.40;99.90;;;;;;5088603;28;20205;-81
2020/12/20 02:17:05;;;;;;;11.88;10.60;;;9.40;99.90;;;;;;5089406;28;20228;-82
2020/12/20 02:19:33;;;;;;;10.98;9.60;;;9.40;99.90;;;;;;5088444;28;20270;-81
2020/12/20 02:22:01;;;;;;;11.55;9.10;;;9.40;99.90;;;;;;5098143;28;20202;-81
2020/12/20 02:24:27;;;;;;;12.98;11.43;;;9.40;99.90;;;;;;5121813;28;20202;-81
2020/12/20 02:26:55;;;;;;;11.43;9.77;;;9.40;99.90;;;;;;5111982;28;20714;-81
2020/12/20 02:29:22;;;;;;;15.10;12.07;;;9.40;99.90;;;;;;5100757;28;20225;-79
2020/12/20 02:31:48;;;;;;;14.18;10.15;;;9.30;99.90;;;;;;5087071;28;20267;-80
2020/12/20 02:34:15;;;;;;;10.73;9.57;;;9.30;99.90;;;;;;5090903;28;20687;-80
2020/12/20 02:36:41;;;;;;;11.80;10.40;;;9.20;99.90;;;;;;5108134;28;20300;-81
2020/12/20 02:39:09;;;;;;;11.23;9.98;;;9.10;99.90;;;;;;5108235;28;20205;-80
2020/12/20 02:41:35;;;;;;;10.90;9.80;;;9.10;99.90;;;;;;5100260;28;20229;-78
2020/12/20 02:44:03;;;;;;;15.00;10.68;;;9.20;99.90;;;;;;5098087;28;20187;-77
2020/12/20 02:46:48;;;;;;;12.80;11.32;;;9.10;99.90;;;;;;5098498;28;20265;-77
2020/12/20 02:49:14;;;;;;;15.75;10.38;;;9.00;99.90;;;;;;5102225;28;20187;-77
2020/12/20 02:51:41;;;;;;;13.73;11.05;;;9.10;99.90;;;;;;5101938;28;20239;-77
2020/12/20 02:54:08;;;;;;;12.70;11.10;;;9.00;99.90;;;;;;5102064;28;20187;-78
2020/12/20 02:56:35;;;;;;;11.70;10.00;;;9.00;99.90;;;;;;5101040;28;20203;-75
2020/12/20 02:59:01;;;;;;;12.60;11.30;;;9.00;99.90;;;;;;5099474;28;20229;-79
2020/12/20 03:01:28;;;;;;;13.00;10.10;;;9.00;99.90;;;;;;5098083;28;20226;-79
2020/12/20 03:03:55;;;;;;;12.60;9.85;;;9.00;99.90;;;;;;5097535;28;20206;-79
2020/12/20 03:06:21;;;;;;;15.63;12.82;;;8.90;99.90;;;;;;5094617;28;20404;-81
2020/12/20 03:08:48;;;;;;;11.35;9.52;;;8.80;99.90;;;;;;5093631;28;20198;-79
2020/12/20 03:11:15;;;;;;;11.25;9.60;;;8.80;99.90;;;;;;5104099;28;20222;-80
2020/12/20 03:13:42;;;;;;;12.25;11.00;;;8.90;99.90;;;;;;5098433;28;20232;-80
2020/12/20 03:16:08;;;;;;;12.40;11.13;;;8.90;99.90;;;;;;5091649;28;20206;-79
2020/12/20 03:18:35;;;;;;;11.75;10.55;;;8.90;99.90;;;;;;5091376;28;20230;-79
2020/12/20 03:21:02;;;;;;;11.55;10.45;;;8.80;99.90;;;;;;5091236;28;20221;-80
2020/12/20 03:23:28;;;;;;;11.27;10.07;;;8.90;99.90;;;;;;5091048;28;20217;-80
2020/12/20 03:25:55;;;;;;;11.13;9.95;;;8.80;99.90;;;;;;5092008;28;20210;-80
2020/12/20 03:28:22;;;;;;;11.95;10.43;;;8.80;99.90;;;;;;5091166;28;20241;-79
2020/12/20 03:31:12;;;;;;;11.85;9.35;;;8.90;99.90;;;;;;5144210;22;20255;-81
2020/12/20 03:34:16;;;;;;;10.93;8.95;;;8.80;99.90;;;;;;5055272;28;20195;-81
2020/12/20 09:32:42;;;;;;;15.05;10.85;;;8.90;99.90;;;;;;5069177;22;20283;-85
2020/12/20 09:35:11;;;;;;;12.77;11.00;;;8.90;99.90;;;;;;5084686;28;20191;-84
2020/12/20 09:37:39;;;;;;;14.32;12.63;;;9.10;99.90;;;;;;5080849;28;20767;-82
2020/12/20 09:40:07;;;;;;;12.50;11.02;;;9.10;99.90;;;;;;5079187;28;20202;-83
2020/12/20 09:42:40;;;;;;;12.73;11.43;;;9.30;99.90;;;;;;5079632;28;20234;-85
2020/12/20 09:45:08;;;;;;;13.73;10.45;;;9.40;99.90;;;;;;5082195;28;20203;-84
2020/12/20 09:47:40;;;;;;;13.57;10.60;;;9.40;99.90;;;;;;5081304;28;20210;-83
2020/12/20 09:50:08;;;;;;;12.35;11.05;;;9.60;99.90;;;;;;5080371;28;20205;-84
2020/12/20 09:52:35;;;;;;;13.18;11.80;;;9.60;99.90;;;;;;5086048;28;20222;-83
2020/12/20 09:55:02;;;;;;;14.43;12.38;;;9.70;99.90;;;;;;5080680;28;20195;-85
2020/12/20 09:57:30;;;;;;;16.88;11.32;;;9.70;99.90;;;;;;5080694;28;20203;-84
2020/12/20 09:59:56;;;;;;;13.13;11.82;;;9.60;99.90;;;;;;5085439;28;20276;-86
2020/12/20 10:02:23;;;;;;;12.77;11.57;;;9.70;99.90;;;;;;5085246;28;20226;-86
2020/12/20 10:04:51;;;;;;;15.55;12.32;;;9.70;99.90;;;;;;5080237;28;20290;-84
2020/12/20 10:07:17;;;;;;;13.07;11.75;;;9.70;99.90;;;;;;5091092;28;20195;-84
2020/12/20 10:09:44;;;;;;;12.50;11.23;;;9.70;99.90;;;;;;5090812;28;20632;-86
2020/12/20 10:12:11;;;;;;;13.65;12.25;;;9.70;99.90;;;;;;5086547;28;20219;-85
2020/12/20 10:14:37;;;;;;;12.45;11.25;;;9.70;99.90;;;;;;5087439;28;20220;-86
2020/12/20 10:17:04;;;;;;;13.45;12.07;;;9.70;99.90;;;;;;5086941;28;20210;-85
2020/12/20 10:19:30;;;;;;;15.80;13.13;;;9.80;99.90;;;;;;5085972;28;20206;-84
2020/12/20 10:21:58;;;;;;;15.13;13.20;;;9.80;99.90;;;;;;5084473;28;20246;-87
2020/12/20 10:24:24;;;;;;;11.40;10.07;;;9.80;99.90;;;;;;5083178;28;20206;-85
2020/12/20 10:26:51;;;;;;;19.35;13.82;;;9.90;99.90;;;;;;5084608;28;20659;-85
2020/12/20 10:29:18;;;;;;;13.63;12.23;;;9.90;99.90;;;;;;5085235;28;20206;-85
2020/12/20 10:31:46;;;;;;;14.65;12.60;;;9.90;99.90;;;;;;5083301;28;20222;-85
2020/12/20 10:34:13;;;;;;;12.90;11.63;;;9.90;99.90;;;;;;5085320;28;20226;-85
2020/12/20 10:36:40;;;;;;;13.43;12.10;;;10.00;99.90;;;;;;5086137;28;20195;-85
2020/12/20 10:39:08;;;;;;;10.63;9.50;;;10.10;99.90;;;;;;5088193;28;20229;-85
2020/12/20 10:41:36;;;;;;;11.13;10.00;;;10.30;99.90;;;;;;5083691;28;20244;-84
2020/12/20 10:44:03;;;;;;;13.38;11.77;;;10.40;99.90;;;;;;5083775;28;20219;-85
2020/12/20 10:46:30;;;;;;;14.18;10.52;;;10.40;99.90;;;;;;5085263;28;20289;-86
2020/12/20 10:48:56;;;;;;;14.90;12.90;;;10.50;99.90;;;;;;5082506;28;20206;-85
2020/12/20 10:51:23;;;;;;;12.00;10.85;;;10.40;99.90;;;;;;5082105;28;20203;-86
2020/12/20 10:53:52;;;;;;;13.00;10.30;;;10.50;99.90;;;;;;5089099;28;20275;-86
2020/12/20 10:56:20;;;;;;;10.80;9.70;;;10.60;99.90;;;;;;5087733;28;20263;-86
2020/12/20 10:58:48;;;;;;;10.38;9.38;;;10.70;99.90;;;;;;5086460;28;20427;-84
2020/12/20 11:01:18;;;;;;;13.75;12.15;;;10.70;99.90;;;;;;5086106;28;20199;-86
2020/12/20 11:03:46;;;;;;;14.63;11.75;;;10.70;99.90;;;;;;5085260;28;20211;-86
2020/12/20 11:06:20;;;;;;;12.63;10.27;;;10.50;99.90;;;;;;5084709;28;20203;-83
2020/12/20 11:08:47;;;;;;;15.57;13.20;;;10.60;99.90;;;;;;5087062;28;20199;-85
2020/12/20 11:11:14;;;;;;;12.25;10.88;;;10.60;99.90;;;;;;5088334;28;20262;-86
2020/12/20 11:13:42;;;;;;;11.80;10.63;;;10.60;99.90;;;;;;5089088;28;20703;-85
2020/12/20 11:16:16;;;;;;;12.65;11.32;;;10.60;99.90;;;;;;5088880;28;20203;-86
2020/12/20 11:18:45;;;;;;;12.25;10.55;;;10.70;99.90;;;;;;5089232;28;20224;-86
2020/12/20 11:21:13;;;;;;;12.77;11.55;;;10.90;99.90;;;;;;5088459;28;20675;-86
2020/12/20 11:23:40;;;;;;;11.98;10.85;;;10.90;99.90;;;;;;5087365;28;20230;-85
2020/12/20 11:26:14;;;;;;;12.63;11.32;;;10.90;99.90;;;;;;5087833;28;20271;-85
2020/12/20 11:28:43;;;;;;;11.90;10.80;;;10.90;99.90;;;;;;5087660;28;20838;-86
2020/12/20 11:31:11;;;;;;;12.55;11.25;;;10.90;99.90;;;;;;5087418;28;20237;-86
2020/12/20 11:33:39;;;;;;;13.80;12.27;;;10.90;99.90;;;;;;5088085;28;20230;-86
2020/12/20 11:36:09;;;;;;;13.70;12.20;;;11.00;99.90;;;;;;5088146;28;20210;-85
2020/12/20 11:38:38;;;;;;;14.20;10.90;;;10.90;99.90;;;;;;5089416;28;20231;-85
2020/12/20 11:41:05;;;;;;;13.98;12.55;;;11.10;99.90;;;;;;5092087;28;20199;-85
2020/12/20 11:43:32;;;;;;;10.20;9.20;;;11.00;99.90;;;;;;5089102;28;20611;-84
2020/12/20 11:45:59;;;;;;;11.38;9.98;;;11.10;99.90;;;;;;5088353;28;20248;-85
2020/12/20 11:48:26;;;;;;;12.68;10.85;;;11.10;99.90;;;;;;5089428;28;20214;-86
2020/12/20 11:50:53;;;;;;;11.85;10.70;;;11.20;99.90;;;;;;5105703;22;20235;-74
2020/12/20 11:53:20;;;;;;;12.88;11.07;;;11.30;99.90;;;;;;5075145;28;20217;-74
2020/12/20 11:55:46;;;;;;;11.38;10.27;;;11.40;99.90;;;;;;5075817;28;20716;-75
2020/12/20 11:58:13;;;;;;;11.20;10.10;;;11.50;99.90;;;;;;5082636;28;20310;-76
2020/12/20 12:00:44;;;;;;;12.68;10.80;;;11.60;99.90;;;;;;5073842;28;20211;-75
2020/12/20 12:03:13;;;;;;;12.52;10.77;;;11.60;99.90;;;;;;5074389;28;20226;-74
2020/12/20 12:05:41;;;;;;;14.95;12.70;;;11.70;99.90;;;;;;5074347;28;20235;-74
2020/12/20 12:08:08;;;;;;;13.85;11.80;;;11.80;99.90;;;;;;5074623;28;20233;-76
2020/12/20 12:10:35;;;;;;;12.95;11.68;;;11.80;99.90;;;;;;5073589;28;20737;-75
2020/12/20 12:13:02;;;;;;;14.35;11.55;;;11.90;99.90;;;;;;5073911;28;20211;-73
2020/12/20 12:15:30;;;;;;;12.55;11.25;;;11.90;99.90;;;;;;5074256;28;20222;-74
2020/12/20 12:17:56;;;;;;;13.48;12.07;;;11.90;99.90;;;;;;5074335;28;20675;-74
2020/12/20 12:20:25;;;;;;;10.98;9.82;;;11.90;99.90;;;;;;5073794;28;20199;-77
2020/12/20 12:22:52;;;;;;;13.23;11.73;;;12.00;99.90;;;;;;5074662;28;20204;-74
2020/12/20 12:25:19;;;;;;;14.63;12.35;;;12.00;99.90;;;;;;5073772;28;20239;-74
2020/12/20 12:27:47;;;;;;;11.57;10.38;;;11.90;99.90;;;;;;5073992;28;20599;-73
2020/12/20 12:30:14;;;;;;;13.70;12.23;;;11.70;99.90;;;;;;5073397;28;20278;-74
2020/12/20 12:32:41;;;;;;;13.15;11.75;;;11.70;99.90;;;;;;5073941;28;20211;-72
2020/12/20 12:35:09;;;;;;;11.15;9.40;;;11.50;99.90;;;;;;5073693;28;20223;-73
2020/12/20 12:37:36;;;;;;;13.93;11.50;;;11.60;99.90;;;;;;5074465;28;20203;-76
2020/12/20 12:40:05;;;;;;;14.25;11.50;;;11.60;99.90;;;;;;5075607;28;20203;-73
2020/12/20 12:42:33;;;;;;;12.15;10.85;;;11.50;99.90;;;;;;5074212;28;20218;-75
2020/12/20 12:44:59;;;;;;;13.40;11.60;;;11.60;99.90;;;;;;5076808;28;20682;-72
2020/12/20 12:47:28;;;;;;;12.40;10.50;;;11.60;99.90;;;;;;5075503;28;20230;-73
2020/12/20 12:49:58;;;;;;;13.50;11.57;;;11.60;99.90;;;;;;5073707;28;20681;-76
2020/12/20 12:52:24;;;;;;;12.50;10.88;;;11.60;99.90;;;;;;5073754;28;20220;-71
2020/12/20 12:54:52;;;;;;;12.57;10.95;;;11.70;99.90;;;;;;5073441;28;20546;-74
2020/12/20 12:57:19;;;;;;;14.15;11.57;;;11.70;99.90;;;;;;5072824;28;20647;-76
2020/12/20 12:59:46;;;;;;;12.38;9.93;;;11.80;99.90;;;;;;5072537;28;20675;-74
2020/12/20 13:02:12;;;;;;;13.05;11.75;;;11.80;99.90;;;;;;5072893;28;20597;-72
2020/12/20 13:04:39;;;;;;;11.23;10.10;;;11.90;99.90;;;;;;5072909;28;20611;-76
2020/12/20 13:07:06;;;;;;;11.90;10.80;;;11.90;99.90;;;;;;5073011;28;20209;-75
2020/12/20 13:09:32;;;;;;;13.95;11.50;;;11.90;99.90;;;;;;5072139;28;20212;-76
2020/12/20 13:12:01;;;;;;;13.43;12.13;;;11.90;99.90;;;;;;5073146;28;20217;-73
2020/12/20 13:14:27;;;;;;;11.38;10.27;;;11.80;99.90;;;;;;5072680;28;20214;-76
2020/12/20 13:16:54;;;;;;;13.52;10.60;;;11.80;99.90;;;;;;5073084;28;20219;-74
2020/12/20 13:19:21;;;;;;;12.68;11.35;;;11.80;99.90;;;;;;5072413;28;20565;-75
2020/12/20 13:21:48;;;;;;;11.82;10.52;;;11.70;99.90;;;;;;5073404;28;20204;-75
2020/12/20 13:24:15;;;;;;;12.10;10.77;;;11.70;99.90;;;;;;5073165;28;20269;-75
2020/12/20 13:26:43;;;;;;;12.82;11.00;;;11.80;99.90;;;;;;5077828;28;20254;-74
2020/12/20 13:29:10;;;;;;;11.52;10.00;;;11.70;99.90;;;;;;5074134;28;20226;-73
2020/12/20 13:31:37;;;;;;;13.23;11.40;;;11.70;99.90;;;;;;5073152;28;20672;-74
2020/12/20 13:34:04;;;;;;;13.80;11.43;;;11.70;99.90;;;;;;5072883;28;20218;-76
2020/12/20 13:36:30;;;;;;;12.30;11.10;;;11.60;99.90;;;;;;5073527;28;20230;-74
2020/12/20 13:38:57;;;;;;;14.27;11.88;;;11.60;99.90;;;;;;5072625;28;20187;-76
2020/12/20 13:41:24;;;;;;;14.38;12.77;;;11.60;99.90;;;;;;5073193;28;20207;-75
2020/12/20 13:43:51;;;;;;;15.00;11.75;;;11.40;99.90;;;;;;5072084;28;20638;-73
2020/12/20 13:46:18;;;;;;;13.65;11.20;;;11.50;99.90;;;;;;5072528;28;20692;-74
2020/12/20 13:48:45;;;;;;;16.48;13.20;;;11.50;99.90;;;;;;5071306;28;20223;-76
2020/12/20 13:51:13;;;;;;;16.83;12.95;;;11.50;99.90;;;;;;5072041;28;20218;-73
2020/12/20 13:53:41;;;;;;;13.25;11.93;;;11.50;99.90;;;;;;5072649;28;20206;-75
2020/12/20 13:56:08;;;;;;;12.65;10.68;;;11.50;99.90;;;;;;5072945;28;20588;-78
2020/12/20 13:58:37;;;;;;;13.80;11.60;;;11.50;99.90;;;;;;5078627;28;20195;-73
2020/12/20 14:01:03;;;;;;;17.23;13.30;;;11.50;99.90;;;;;;5072453;28;20203;-76
2020/12/20 14:03:31;;;;;;;13.65;12.25;;;11.50;99.90;;;;;;5071914;28;20566;-73
2020/12/20 14:05:57;;;;;;;14.57;11.30;;;11.50;99.90;;;;;;5072805;28;20226;-75
2020/12/20 14:08:24;;;;;;;17.00;12.50;;;11.60;99.90;;;;;;5071186;28;20264;-76
2020/12/20 14:10:50;;;;;;;13.75;12.35;;;11.50;99.90;;;;;;5072059;28;20207;-74
2020/12/20 14:13:17;;;;;;;13.52;12.05;;;11.40;99.90;;;;;;5072637;28;20242;-76
2020/12/20 14:15:44;;;;;;;12.18;10.65;;;11.50;99.90;;;;;;5072312;28;20683;-73
2020/12/20 14:18:10;;;;;;;12.98;11.23;;;11.50;99.90;;;;;;5071483;28;20253;-76
2020/12/20 14:20:39;;;;;;;16.05;14.40;;;11.50;99.90;;;;;;5072016;28;20594;-75
2020/12/20 14:23:06;;;;;;;18.98;13.32;;;11.40;99.90;;;;;;5072376;28;20237;-76
2020/12/20 14:25:33;;;;;;;15.82;13.55;;;11.30;99.90;;;;;;5071757;28;20261;-76
2020/12/20 14:28:00;;;;;;;12.80;11.10;;;11.40;99.90;;;;;;5083654;28;20706;-74
2020/12/20 14:30:27;;;;;;;13.57;12.18;;;11.40;99.90;;;;;;5092328;28;20202;-75
2020/12/20 14:32:54;;;;;;;14.88;12.45;;;11.40;99.90;;;;;;5092037;28;20204;-76
2020/12/20 14:35:21;;;;;;;18.52;13.98;;;11.40;99.90;;;;;;5092959;28;20227;-75
2020/12/20 14:37:50;;;;;;;13.15;10.85;;;11.30;99.90;;;;;;5093109;28;20202;-75
2020/12/20 14:40:16;;;;;;;13.48;12.10;;;11.30;99.90;;;;;;5092623;28;20317;-76
2020/12/20 14:42:43;;;;;;;14.40;12.90;;;11.40;99.90;;;;;;5093215;28;20322;-75
2020/12/20 14:45:10;;;;;;;13.23;11.73;;;11.30;99.90;;;;;;5096056;28;20272;-74
2020/12/20 14:47:37;;;;;;;15.68;12.95;;;11.20;99.90;;;;;;5095879;28;20210;-74
2020/12/20 14:50:04;;;;;;;13.73;12.32;;;11.30;99.90;;;;;;5095618;28;20290;-75
2020/12/20 14:52:30;;;;;;;14.32;11.57;;;11.30;99.90;;;;;;5096331;28;20206;-76
2020/12/20 14:54:58;;;;;;;15.55;12.90;;;11.20;99.90;;;;;;5095816;28;20231;-75
2020/12/20 14:57:25;;;;;;;14.60;13.10;;;11.00;99.90;;;;;;5095909;28;20190;-74
2020/12/20 14:59:52;;;;;;;13.25;11.45;;;11.00;99.90;;;;;;5095115;28;20225;-77
2020/12/20 15:02:19;;;;;;;17.65;12.55;;;11.10;99.90;;;;;;5096203;28;20197;-75
2020/12/20 15:04:45;;;;;;;14.68;12.30;;;11.10;99.90;;;;;;5095427;28;20206;-73
2020/12/20 15:07:12;;;;;;;17.65;13.00;;;11.00;99.90;;;;;;5095558;28;20203;-76
2020/12/20 15:09:41;;;;;;;13.70;12.07;;;10.90;99.90;;;;;;5095278;28;20233;-76
2020/12/20 15:12:09;;;;;;;18.27;15.38;;;10.80;99.90;;;;;;5095758;28;20209;-77
2020/12/20 15:14:36;;;;;;;18.08;14.82;;;10.80;99.90;;;;;;5095361;28;20308;-75
2020/12/20 15:17:03;;;;;;;15.90;13.10;;;10.80;99.90;;;;;;5095609;28;20213;-74
2020/12/20 15:19:29;;;;;;;18.08;14.57;;;10.80;99.90;;;;;;5095244;28;20205;-74
2020/12/20 15:21:56;;;;;;;17.00;15.17;;;10.80;99.90;;;;;;5094420;28;20725;-77
2020/12/20 15:24:23;;;;;;;15.68;13.98;;;10.80;99.90;;;;;;5096007;28;20459;-76
2020/12/20 15:26:51;;;;;;;19.52;13.32;;;10.80;99.90;;;;;;5095860;28;20221;-77
2020/12/20 15:29:18;;;;;;;17.80;15.02;;;10.80;99.90;;;;;;5094936;28;20210;-75
2020/12/20 15:45:17;;;;;;;21.15;16.95;;;10.40;99.90;;;;;;5130647;28;20181;-83
2020/12/20 16:11:35;;;;;;;17.30;13.45;;;10.10;99.90;;;;;;5112652;28;20204;-87
2020/12/20 16:14:02;;;;;;;17.40;14.55;;;10.20;99.90;;;;;;5109603;28;20210;-83
2020/12/20 16:16:31;;;;;;;19.33;15.25;;;10.20;99.90;;;;;;5107413;28;20335;-83
2020/12/20 16:18:57;;;;;;;16.50;13.43;;;10.20;99.90;;;;;;5107437;28;20209;-82
2020/12/20 16:21:28;;;;;;;16.67;14.77;;;10.20;99.90;;;;;;5107653;28;20206;-82
2020/12/20 16:23:56;;;;;;;15.73;14.05;;;10.30;99.90;;;;;;5115813;28;20221;-83
2020/12/20 16:26:24;;;;;;;16.77;14.05;;;10.30;99.90;;;;;;5124628;28;20200;-82
2020/12/20 16:28:54;;;;;;;15.65;14.05;;;10.20;99.90;;;;;;5124199;28;20220;-83
2020/12/20 16:31:20;;;;;;;18.77;16.77;;;10.20;99.90;;;;;;5123883;28;20206;-84
2020/12/20 16:33:47;;;;;;;19.08;14.95;;;10.20;99.90;;;;;;5126349;28;20229;-83
2020/12/20 16:36:20;;;;;;;15.50;13.77;;;10.20;99.90;;;;;;5124120;28;20225;-81
2020/12/20 16:38:48;;;;;;;16.75;15.07;;;10.10;99.90;;;;;;5124475;28;20216;-83
2020/12/20 16:41:17;;;;;;;16.80;13.98;;;10.10;99.90;;;;;;5123877;28;20257;-82
2020/12/20 16:43:44;;;;;;;13.90;12.32;;;10.20;99.90;;;;;;5128997;28;20229;-82
2020/12/20 16:46:11;;;;;;;17.98;16.08;;;10.20;99.90;;;;;;5133058;28;20216;-82
2020/12/20 16:48:39;;;;;;;15.27;13.80;;;10.20;99.90;;;;;;5124294;28;20661;-82
2020/12/20 16:51:06;;;;;;;20.05;15.88;;;10.30;99.90;;;;;;5125092;28;20236;-83
2020/12/20 16:53:33;;;;;;;16.40;14.70;;;10.20;99.90;;;;;;5115936;28;20221;-83
2020/12/20 16:55:59;;;;;;;14.65;12.20;;;10.30;99.90;;;;;;5122914;28;20258;-83
2020/12/20 16:58:26;;;;;;;14.00;12.60;;;10.40;99.90;;;;;;5127637;28;20459;-83
2020/12/20 17:00:53;;;;;;;13.85;12.45;;;10.40;99.90;;;;;;5126848;28;20209;-82
2020/12/20 17:03:22;;;;;;;16.55;14.10;;;10.40;99.90;;;;;;5122429;28;20225;-81
2020/12/20 17:05:48;;;;;;;15.07;12.38;;;10.40;99.90;;;;;;5123121;28;20196;-83
2020/12/20 17:08:15;;;;;;;14.48;12.40;;;10.50;99.90;;;;;;5125990;28;20300;-83
2020/12/20 17:10:42;;;;;;;14.30;12.77;;;10.50;99.90;;;;;;5123454;28;20204;-83
2020/12/20 17:13:08;;;;;;;16.25;13.57;;;10.50;99.90;;;;;;5123317;28;20218;-81
2020/12/20 17:15:37;;;;;;;16.52;14.65;;;10.60;99.90;;;;;;5124078;28;20206;-81
2020/12/20 17:18:03;;;;;;;16.17;13.93;;;10.60;99.90;;;;;;5125670;28;20220;-82
2020/12/20 17:20:31;;;;;;;15.55;12.32;;;10.60;99.90;;;;;;5126465;28;20202;-81
2020/12/20 17:22:58;;;;;;;16.83;14.25;;;10.60;99.90;;;;;;5125372;28;20232;-81
2020/12/20 17:25:24;;;;;;;15.05;13.25;;;10.60;99.90;;;;;;5124989;28;20270;-82
2020/12/20 17:27:51;;;;;;;16.98;12.32;;;10.60;99.90;;;;;;5125844;28;20221;-83
2020/12/20 17:30:18;;;;;;;18.77;14.30;;;10.70;99.90;;;;;;5126261;28;20206;-81
2020/12/20 17:32:45;;;;;;;16.70;13.10;;;10.70;99.90;;;;;;5124915;28;20240;-82
2020/12/20 17:35:12;;;;;;;12.00;10.77;;;10.70;99.90;;;;;;5123441;28;20201;-82
2020/12/20 17:37:42;;;;;;;14.35;11.90;;;10.70;99.90;;;;;;5124329;28;20259;-82
2020/12/20 17:40:09;;;;;;;17.52;12.95;;;10.50;99.90;;;;;;5123652;28;20599;-81
2020/12/20 17:42:39;;;;;;;12.52;11.13;;;10.70;99.90;;;;;;5126280;28;20221;-81
2020/12/20 17:45:06;;;;;;;14.88;13.07;;;10.70;99.90;;;;;;5124208;28;20205;-81
2020/12/20 17:47:34;;;;;;;14.02;11.90;;;10.70;99.90;;;;;;5123162;28;20223;-83
2020/12/20 17:50:11;;;;;;;14.27;11.82;;;10.60;99.90;;;;;;5118948;28;20190;-83
2020/12/20 17:52:41;;;;;;;14.45;12.20;;;10.60;99.90;;;;;;5105003;28;20227;-82
2020/12/20 17:55:08;;;;;;;13.65;12.20;;;10.70;99.90;;;;;;5118524;28;20230;-82
2020/12/20 17:57:36;;;;;;;14.50;12.98;;;10.60;99.90;;;;;;5122667;28;20256;-82
2020/12/20 18:00:05;;;;;;;16.88;12.50;;;10.60;99.90;;;;;;5125183;28;20220;-86
2020/12/20 18:02:59;;;;;;;13.65;12.25;;;10.70;99.90;;;;;;5126525;28;20225;-82
2020/12/20 18:05:25;;;;;;;16.02;13.07;;;10.70;99.90;;;;;;5106256;28;20222;-84
2020/12/20 18:07:52;;;;;;;14.40;12.48;;;10.60;99.90;;;;;;5085301;28;20246;-85
2020/12/20 18:10:20;;;;;;;13.32;11.60;;;10.50;99.90;;;;;;5084343;28;20207;-84
2020/12/20 18:12:50;;;;;;;16.65;14.88;;;10.40;99.90;;;;;;5085051;28;20343;-84
2020/12/20 18:15:17;;;;;;;17.45;12.85;;;10.40;99.90;;;;;;5086466;28;20365;-82
2020/12/20 18:18:14;;;;;;;14.05;11.90;;;10.30;99.90;;;;;;5088483;28;20256;-82
2020/12/20 18:20:50;;;;;;;15.02;12.65;;;10.30;99.90;;;;;;5090751;28;20211;-84
2020/12/20 18:23:16;;;;;;;14.77;10.70;;;10.30;99.90;;;;;;5091512;28;20248;-84
2020/12/20 18:25:44;;;;;;;14.88;12.13;;;10.30;99.90;;;;;;5096578;28;20201;-83
2020/12/20 18:28:11;;;;;;;13.32;11.95;;;10.20;99.90;;;;;;5109866;28;20224;-83
2020/12/20 18:30:42;;;;;;;14.38;11.20;;;10.20;99.90;;;;;;5110929;28;20190;-85
2020/12/20 18:33:16;;;;;;;16.67;14.95;;;10.20;99.90;;;;;;5109342;28;20238;-84
2020/12/20 18:35:43;;;;;;;14.80;13.23;;;10.00;99.90;;;;;;5115564;28;20201;-85
2020/12/20 18:38:10;;;;;;;17.38;12.50;;;10.00;99.90;;;;;;5108127;28;20284;-85
2020/12/20 18:40:37;;;;;;;18.58;14.00;;;10.00;99.90;;;;;;5109097;28;20202;-85
2020/12/20 18:43:06;;;;;;;13.48;12.10;;;10.00;99.90;;;;;;5111259;28;20285;-85
2020/12/20 18:45:33;;;;;;;15.02;13.48;;;9.80;99.90;;;;;;5111940;28;20299;-85
2020/12/20 18:47:59;;;;;;;19.83;13.15;;;9.90;99.90;;;;;;5110629;28;20232;-84
2020/12/20 18:50:26;;;;;;;13.30;12.00;;;9.90;99.90;;;;;;5106883;28;20202;-84
2020/12/20 18:52:53;;;;;;;14.20;12.90;;;10.00;99.90;;;;;;5106890;28;20226;-85
2020/12/20 18:55:20;;;;;;;13.73;12.32;;;9.90;99.90;;;;;;5113815;28;20203;-86
2020/12/20 18:57:47;;;;;;;16.15;14.23;;;10.00;99.90;;;;;;5115896;28;20205;-84
2020/12/20 19:00:15;;;;;;;14.70;13.00;;;9.90;99.90;;;;;;5116285;28;20206;-84
2020/12/20 19:02:42;;;;;;;18.50;14.32;;;9.90;99.90;;;;;;5110096;28;20222;-84
2020/12/20 19:05:08;;;;;;;15.73;14.00;;;9.80;99.90;;;;;;5111609;28;20221;-85
2020/12/20 19:07:35;;;;;;;16.83;15.00;;;9.90;99.90;;;;;;5116544;28;20205;-85